Time;durP1;ratioP1;P1;durP2;ratioP2;P2;SDS_P1;SDS_P2;PMS_P1;PMS_P2;Temp;Humidity;BMP_temperature;BMP_pressure;BME280_temperature;BME280_humidity;BME280_pressure;Samples;Min_cycle;Max_cycle;Signal;HPM_P1;HPM_P2
2023/09/04 00:03:00;;;;;;;;;;;15.60;99.90;;;;;;6698112;88;20089;-77
2023/09/04 00:13:00;;;;;;;;;;;15.50;99.90;;;;;;6701018;88;20051;-78
2023/09/04 00:23:00;;;;;;;;;;;15.50;99.90;;;;;;6713345;88;20080;-78
2023/09/04 00:33:01;;;;;;;;;;;15.40;99.90;;;;;;6707937;88;20138;-77
2023/09/04 00:43:02;;;;;;;;;;;15.30;99.90;;;;;;6706373;88;20072;-77
2023/09/04 00:53:04;;;;;;;;;;;15.30;99.90;;;;;;6705847;88;20064;-79
2023/09/04 01:03:05;;;;;;;;;;;15.20;99.90;;;;;;6708142;88;20590;-77
2023/09/04 01:13:16;;;;;;;;;;;15.10;99.90;;;;;;6716713;88;20063;-78
2023/09/04 01:23:17;;;;;;;;;;;14.90;99.90;;;;;;6705038;88;20048;-77
2023/09/04 01:33:19;;;;;;;;;;;14.70;99.90;;;;;;6706721;88;20479;-78
2023/09/04 01:43:20;;;;;;;;;;;14.60;99.90;;;;;;6707402;88;20145;-78
2023/09/04 01:53:21;;;;;;;;;;;14.30;99.90;;;;;;6702322;88;20085;-78
2023/09/04 02:03:22;;;;;;;;;;;14.30;99.90;;;;;;6705991;88;20106;-78
2023/09/04 02:13:22;;;;;;;;;;;14.30;99.90;;;;;;6706145;88;20063;-78
2023/09/04 02:23:23;;;;;;;;;;;14.30;99.90;;;;;;6705612;88;20244;-78
2023/09/04 02:33:23;;;;;;;;;;;14.40;99.90;;;;;;6705018;88;20467;-79
2023/09/04 02:43:23;;;;;;;;;;;14.30;99.90;;;;;;6708786;88;20075;-78
2023/09/04 02:53:26;;;;;;;;;;;14.20;99.90;;;;;;6705556;88;20087;-78
2023/09/04 03:03:27;;;;;;;;;;;14.20;99.90;;;;;;6703442;88;20071;-79
2023/09/04 03:13:27;;;;;;;;;;;14.20;99.90;;;;;;6696755;88;20081;-79
2023/09/04 03:23:28;;;;;;;;;;;14.20;99.90;;;;;;6698641;88;20055;-79
2023/09/04 03:33:28;;;;;;;;;;;14.10;99.90;;;;;;6691456;88;20662;-79
2023/09/04 03:43:29;;;;;;;;;;;14.00;99.90;;;;;;6704056;88;20466;-78
2023/09/04 04:03:33;;;;;;;;;;;13.80;99.90;;;;;;6701725;88;20622;-76
2023/09/04 04:13:33;;;;;;;;;;;13.70;99.90;;;;;;6699761;88;20107;-76
2023/09/04 04:23:34;;;;;;;;;;;13.60;99.90;;;;;;6699732;88;20067;-77
2023/09/04 04:33:34;;;;;;;;;;;13.50;99.90;;;;;;6698918;88;20096;-78
2023/09/04 04:43:36;;;;;;;;;;;13.50;99.90;;;;;;6695718;88;20105;-77
2023/09/04 04:53:36;;;;;;;;;;;13.50;99.90;;;;;;6701849;88;20178;-78
2023/09/04 05:03:36;;;;;;;;;;;13.50;99.90;;;;;;6701816;88;20488;-78
2023/09/04 05:13:37;;;;;;;;;;;13.60;99.90;;;;;;6702394;88;20078;-78
2023/09/04 05:23:37;;;;;;;;;;;13.60;99.90;;;;;;6701958;88;20490;-75
2023/09/04 05:33:38;;;;;;;;;;;13.70;99.90;;;;;;6703713;88;20047;-77
2023/09/04 05:43:38;;;;;;;;;;;13.70;99.90;;;;;;6704828;88;20071;-78
2023/09/04 05:53:39;;;;;;;;;;;13.90;99.90;;;;;;6705041;88;20062;-79
2023/09/04 06:03:39;;;;;;;;;;;14.10;99.90;;;;;;6705596;88;20055;-79
2023/09/04 06:13:40;;;;;;;;;;;14.30;99.90;;;;;;6708257;88;20129;-78
2023/09/04 06:23:40;;;;;;;;;;;14.60;99.90;;;;;;6704433;88;20080;-78
2023/09/04 06:33:41;;;;;;;;;;;14.90;99.90;;;;;;6711466;88;20067;-78
2023/09/04 06:43:41;;;;;;;;;;;15.20;99.90;;;;;;6718692;88;20533;-78
2023/09/04 06:53:42;;;;;;;;;;;15.40;99.90;;;;;;6708819;88;20079;-77
2023/09/04 07:03:43;;;;;;;;;;;16.00;99.90;;;;;;6703112;88;20095;-77
2023/09/04 07:13:43;;;;;;;;;;;16.60;99.90;;;;;;6700956;88;20164;-78
2023/09/04 07:23:44;;;;;;;;;;;17.40;99.90;;;;;;6697979;88;20574;-78
2023/09/04 07:33:45;;;;;;;;;;;18.20;99.90;;;;;;6702962;88;20108;-78
2023/09/04 07:43:46;;;;;;;;;;;18.60;99.90;;;;;;6691405;88;20557;-79
2023/09/04 07:53:46;;;;;;;;;;;19.20;99.90;;;;;;6702569;88;20081;-76
2023/09/04 08:03:47;;;;;;;;;;;19.50;99.90;;;;;;6701637;88;20072;-78
2023/09/04 08:13:47;;;;;;;;;;;20.20;99.90;;;;;;6702828;88;20060;-78
2023/09/04 08:23:48;;;;;;;;;;;21.00;99.90;;;;;;6705222;88;20659;-78
2023/09/04 08:33:48;;;;;;;;;;;21.90;99.90;;;;;;6705242;88;20191;-78
2023/09/04 08:43:49;;;;;;;;;;;22.70;99.90;;;;;;6703548;88;20088;-77
2023/09/04 08:53:50;;;;;;;;;;;23.20;99.90;;;;;;6703042;88;20102;-76
2023/09/04 09:03:50;;;;;;;;;;;24.40;99.90;;;;;;6702733;88;20079;-76
2023/09/04 09:13:53;;;;;;;;;;;24.50;99.90;;;;;;6704948;88;20090;-77
2023/09/04 09:24:06;;;;;;;;;;;25.00;99.90;;;;;;6702781;88;20098;-76
2023/09/04 09:34:06;;;;;;;;;;;24.20;99.90;;;;;;6700496;88;20523;-76
2023/09/04 09:44:07;;;;;;;;;;;25.10;99.90;;;;;;6702135;88;20115;-77
2023/09/04 09:54:08;;;;;;;;;;;25.00;99.90;;;;;;6704844;77;20901;-77
2023/09/04 10:04:09;;;;;;;;;;;25.60;99.90;;;;;;6707207;88;20055;-78
2023/09/04 10:14:15;;;;;;;;;;;26.30;99.90;;;;;;6687435;88;20179;-79
2023/09/04 10:24:18;;;;;;;;;;;27.60;99.90;;;;;;6683788;88;20114;-77
2023/09/04 10:34:19;;;;;;;;;;;28.10;99.90;;;;;;6695073;88;20126;-79
2023/09/04 10:44:43;;;;;;;;;;;28.10;99.50;;;;;;6684117;88;20061;-77
2023/09/04 10:54:43;;;;;;;;;;;27.80;99.50;;;;;;6677592;88;20748;-79
2023/09/04 11:04:45;;;;;;;;;;;28.20;98.10;;;;;;6682814;88;20140;-78
2023/09/04 11:14:47;;;;;;;;;;;28.10;97.40;;;;;;6683290;88;20206;-80
2023/09/04 11:24:49;;;;;;;;;;;28.30;96.50;;;;;;6684340;88;20089;-80
2023/09/04 11:34:50;;;;;;;;;;;27.90;96.50;;;;;;6681094;88;20164;-79
2023/09/04 11:44:50;;;;;;;;;;;27.80;97.50;;;;;;6683717;88;20061;-79
2023/09/04 11:54:52;;;;;;;;;;;29.30;97.00;;;;;;6681111;88;20085;-78
2023/09/04 12:04:56;;;;;;;;;;;29.70;94.50;;;;;;6694397;88;20057;-78
2023/09/04 12:14:56;;;;;;;;;;;28.80;95.10;;;;;;6684036;88;20144;-77
2023/09/04 12:24:59;;;;;;;;;;;29.00;95.90;;;;;;6683300;88;20077;-78
2023/09/04 12:35:01;;;;;;;;;;;28.90;94.30;;;;;;6681567;88;20060;-77
2023/09/04 12:45:02;;;;;;;;;;;29.30;94.30;;;;;;6685079;88;20085;-78
2023/09/04 12:55:03;;;;;;;;;;;29.40;94.20;;;;;;6686238;88;20556;-78
2023/09/04 13:05:04;;;;;;;;;;;29.90;92.30;;;;;;6685447;88;20045;-77
2023/09/04 13:15:04;;;;;;;;;;;30.80;91.60;;;;;;6688435;88;20535;-78
2023/09/04 13:25:05;;;;;;;;;;;30.10;92.50;;;;;;6686858;88;20079;-78
2023/09/04 13:35:09;;;;;;;;;;;30.40;93.10;;;;;;6691342;88;20080;-79
2023/09/04 13:45:09;;;;;;;;;;;30.60;92.40;;;;;;6688894;88;20078;-79
2023/09/04 13:55:10;;;;;;;;;;;31.10;92.50;;;;;;6682374;88;20539;-78
2023/09/04 14:05:13;;;;;;;;;;;31.20;91.80;;;;;;6689740;88;20537;-78
2023/09/04 14:15:13;;;;;;;;;;;31.10;90.80;;;;;;6687256;88;20520;-78
2023/09/04 14:25:14;;;;;;;;;;;30.30;91.00;;;;;;6688792;88;20056;-79
2023/09/04 14:35:14;;;;;;;;;;;30.00;90.70;;;;;;6686033;88;20079;-79
2023/09/04 14:45:15;;;;;;;;;;;30.00;90.70;;;;;;6681751;88;20150;-80
2023/09/04 14:55:15;;;;;;;;;;;30.40;90.00;;;;;;6691631;88;20232;-80
2023/09/04 15:05:16;;;;;;;;;;;30.50;89.00;;;;;;6693648;88;20060;-79
2023/09/04 15:15:16;;;;;;;;;;;30.50;89.30;;;;;;6687593;88;20095;-76
2023/09/04 15:25:17;;;;;;;;;;;30.40;90.60;;;;;;6683745;88;20077;-81
2023/09/04 15:35:17;;;;;;;;;;;30.00;89.90;;;;;;6686691;88;20102;-80
2023/09/04 15:45:17;;;;;;;;;;;29.40;89.20;;;;;;6686143;88;20067;-80
2023/09/04 16:05:22;;;;;;;;;;;29.40;90.00;;;;;;6708538;88;20595;-81
2023/09/04 16:15:24;;;;;;;;;;;29.20;89.30;;;;;;6701598;88;20067;-81
2023/09/04 16:25:26;;;;;;;;;;;28.90;89.80;;;;;;6707130;88;20118;-80
2023/09/04 16:35:26;;;;;;;;;;;28.80;89.20;;;;;;6702636;88;20138;-76
2023/09/04 16:45:27;;;;;;;;;;;28.40;88.50;;;;;;6701630;88;20070;-78
2023/09/04 16:55:27;;;;;;;;;;;27.80;90.70;;;;;;6707439;88;20114;-77
2023/09/04 17:05:28;;;;;;;;;;;27.60;91.20;;;;;;6718106;88;20071;-79
2023/09/04 17:15:29;;;;;;;;;;;27.40;91.50;;;;;;6714176;88;20217;-79
2023/09/04 17:25:29;;;;;;;;;;;26.70;91.60;;;;;;6712158;88;20431;-80
2023/09/04 17:35:33;;;;;;;;;;;26.40;91.70;;;;;;6724098;88;20228;-82
2023/09/04 17:45:35;;;;;;;;;;;25.90;93.00;;;;;;6717463;88;20140;-79
2023/09/04 17:55:35;;;;;;;;;;;25.60;92.90;;;;;;6697950;88;20118;-81
2023/09/04 18:05:36;;;;;;;;;;;25.30;93.10;;;;;;6704203;88;20546;-80
2023/09/04 18:15:36;;;;;;;;;;;25.10;93.40;;;;;;6698477;88;20062;-79
2023/09/04 18:25:38;;;;;;;;;;;24.70;94.10;;;;;;6705738;88;20068;-82
2023/09/04 18:35:38;;;;;;;;;;;24.30;94.50;;;;;;6711475;88;20545;-80
2023/09/04 18:45:42;;;;;;;;;;;23.90;95.00;;;;;;6707825;88;20110;-77
2023/09/04 18:55:43;;;;;;;;;;;23.80;95.80;;;;;;6708660;88;20077;-78
2023/09/04 19:05:47;;;;;;;;;;;23.30;97.20;;;;;;6697006;88;20590;-75
2023/09/04 19:15:48;;;;;;;;;;;23.00;98.40;;;;;;6697481;88;20138;-76
2023/09/04 19:25:48;;;;;;;;;;;22.50;99.90;;;;;;6693890;88;20105;-77
2023/09/04 19:35:49;;;;;;;;;;;22.10;99.90;;;;;;6698313;88;20071;-77
2023/09/04 19:45:49;;;;;;;;;;;21.80;99.90;;;;;;6699876;88;20078;-77
2023/09/04 19:55:50;;;;;;;;;;;21.50;99.90;;;;;;6704081;88;20142;-77
2023/09/04 20:05:50;;;;;;;;;;;21.30;99.90;;;;;;6696895;88;20292;-78
2023/09/04 20:15:52;;;;;;;;;;;21.10;99.90;;;;;;6692759;88;20809;-76
2023/09/04 20:25:52;;;;;;;;;;;20.70;99.90;;;;;;6694735;88;20570;-77
2023/09/04 20:35:53;;;;;;;;;;;20.50;99.90;;;;;;6694889;88;20106;-77
2023/09/04 20:45:53;;;;;;;;;;;20.20;99.90;;;;;;6697409;88;20169;-77
2023/09/04 20:55:54;;;;;;;;;;;20.00;99.90;;;;;;6700753;88;20115;-77
2023/09/04 21:06:00;;;;;;;;;;;19.90;99.90;;;;;;6704945;88;20755;-77
2023/09/04 23:30:37;;;;;;;;;;;18.50;99.90;;;;;;6683011;88;20169;-77
2023/09/04 23:50:57;;;;;;;;;;;18.50;99.90;;;;;;6681600;88;20048;-78
